Time;durP1;ratioP1;P1;durP2;ratioP2;P2;SDS_P1;SDS_P2;PMS_P1;PMS_P2;Temp;Humidity;BMP_temperature;BMP_pressure;BME280_temperature;BME280_humidity;BME280_pressure;Samples;Min_cycle;Max_cycle;Signal;HPM_P1;HPM_P2
2021/10/20 00:03:05;;;;;;;2.20;2.00;;;22.40;59.90;;;;;;31737568;28;20039;-63
2021/10/20 00:18:09;;;;;;;1.92;1.20;;;22.40;60.00;;;;;;31690794;28;20048;-64
2021/10/20 00:33:11;;;;;;;1.13;0.90;;;22.40;60.00;;;;;;31677931;28;20044;-64
2021/10/20 00:48:13;;;;;;;0.95;0.60;;;22.30;60.90;;;;;;31660946;28;20068;-63
2021/10/20 01:03:15;;;;;;;0.50;0.50;;;22.30;60.30;;;;;;31266308;28;10001033;-66
2021/10/20 01:18:18;;;;;;;0.20;0.20;;;22.40;60.20;;;;;;31610044;28;20144;-65
2021/10/20 01:33:20;;;;;;;0.30;0.30;;;22.30;60.30;;;;;;31639358;28;20549;-63
2021/10/20 01:48:22;;;;;;;0.30;0.30;;;22.30;60.20;;;;;;31647804;28;20082;-63
2021/10/20 02:03:27;;;;;;;0.30;0.30;;;22.40;61.40;;;;;;31710988;28;20051;-63
2021/10/20 02:18:30;;;;;;;1.40;0.20;;;22.80;61.60;;;;;;31684245;28;20045;-64
2021/10/20 02:33:32;;;;;;;0.20;0.20;;;22.90;61.50;;;;;;31707819;28;20091;-63
2021/10/20 02:48:35;;;;;;;0.15;0.15;;;22.80;61.80;;;;;;31751421;28;20104;-60
2021/10/20 03:03:37;;;;;;;1.20;0.10;;;22.70;61.70;;;;;;31634693;28;20045;-64
2021/10/20 03:18:39;;;;;;;0.10;0.10;;;22.70;61.70;;;;;;31747473;28;20041;-65
2021/10/20 03:33:41;;;;;;;1.60;0.20;;;22.70;61.70;;;;;;31713614;28;20094;-62
2021/10/20 03:48:43;;;;;;;2.90;0.10;;;22.50;61.70;;;;;;31683623;28;20044;-64
2021/10/20 04:03:45;;;;;;;0.40;0.40;;;22.50;61.60;;;;;;31707291;28;20067;-62
2021/10/20 04:18:47;;;;;;;0.20;0.10;;;22.50;61.40;;;;;;31693711;28;20193;-63
2021/10/20 04:33:49;;;;;;;0.25;0.25;;;22.40;61.70;;;;;;31674526;28;20059;-64
2021/10/20 04:48:51;;;;;;;2.67;0.85;;;22.40;61.50;;;;;;31693716;28;20085;-61
2021/10/20 05:03:53;;;;;;;11.63;5.10;;;22.40;61.60;;;;;;31671806;28;20082;-58
2021/10/20 05:18:55;;;;;;;21.20;13.93;;;22.40;62.00;;;;;;31716433;28;20096;-59
2021/10/20 05:33:57;;;;;;;9.13;5.55;;;22.80;59.60;;;;;;31746850;28;20047;-60
2021/10/20 05:48:59;;;;;;;7.95;6.60;;;22.50;56.30;;;;;;31713441;28;20135;-60
2021/10/20 06:04:03;;;;;;;11.95;10.27;;;22.10;53.90;;;;;;31750866;28;20048;-62
2021/10/20 06:48:20;;;;;;;18.98;14.23;;;21.90;49.90;;;;;;32111190;27;20415;-58
2021/10/20 07:03:44;;;;;;;21.10;16.83;;;21.80;50.90;;;;;;31980131;28;20107;-58
2021/10/20 07:19:07;;;;;;;25.48;17.88;;;21.80;49.80;;;;;;31979407;28;20103;-57
2021/10/20 07:34:30;;;;;;;25.88;18.95;;;21.70;49.40;;;;;;31976678;28;20075;-58
2021/10/20 07:49:53;;;;;;;23.05;18.30;;;21.50;49.50;;;;;;31890491;28;20036;-57
2021/10/20 08:05:16;;;;;;;23.90;18.80;;;21.50;49.50;;;;;;31888787;28;20059;-57
2021/10/20 08:20:38;;;;;;;22.50;18.50;;;21.50;49.60;;;;;;31886001;28;20055;-56
2021/10/20 08:36:01;;;;;;;23.83;19.92;;;21.40;50.00;;;;;;31883131;28;20113;-58
2021/10/20 08:51:24;;;;;;;22.40;19.55;;;21.30;50.90;;;;;;31882053;28;20059;-58
2021/10/20 09:06:46;;;;;;;24.80;19.23;;;21.20;50.60;;;;;;31880466;28;20611;-57
2021/10/20 09:22:09;;;;;;;21.00;18.52;;;21.20;51.10;;;;;;31861314;28;20067;-58
2021/10/20 09:37:31;;;;;;;21.42;16.50;;;21.10;51.30;;;;;;31873780;28;20059;-58
2021/10/20 09:52:54;;;;;;;26.83;15.40;;;21.60;52.10;;;;;;31871962;28;20048;-58
2021/10/20 10:08:16;;;;;;;17.33;13.90;;;21.90;51.90;;;;;;31770187;28;20043;-54
2021/10/20 10:23:52;;;;;;;31.92;15.32;;;21.80;50.90;;;;;;31872741;28;20103;-57
2021/10/20 10:39:22;;;;;;;22.58;16.45;;;21.70;50.90;;;;;;31871958;28;20051;-53
2021/10/20 10:54:56;;;;;;;22.42;14.88;;;21.60;50.20;;;;;;31778274;28;20104;-58
2021/10/20 11:10:19;;;;;;;16.92;13.63;;;21.50;51.00;;;;;;31799503;28;20107;-53
2021/10/20 11:25:45;;;;;;;18.10;13.40;;;21.50;50.10;;;;;;31879589;28;20147;-58
2021/10/20 11:41:07;;;;;;;15.18;12.95;;;21.40;50.10;;;;;;31754021;28;20048;-47
2021/10/20 11:56:31;;;;;;;40.53;14.75;;;21.40;50.60;;;;;;31753985;28;20108;-49
2021/10/20 12:11:55;;;;;;;15.10;12.25;;;21.30;51.20;;;;;;31752131;28;20044;-48
2021/10/20 12:27:22;;;;;;;15.15;13.27;;;21.40;51.10;;;;;;31748938;28;20107;-49
2021/10/20 12:42:52;;;;;;;14.90;12.30;;;21.40;51.40;;;;;;31751235;28;20079;-46
2021/10/20 12:58:17;;;;;;;15.77;12.33;;;21.20;51.30;;;;;;31984167;27;20072;-49
2021/10/20 13:13:39;;;;;;;21.85;11.55;;;21.40;52.10;;;;;;32007309;27;20043;-46
2021/10/20 13:29:02;;;;;;;18.77;12.00;;;21.40;52.90;;;;;;32002291;27;20039;-47
2021/10/20 13:44:24;;;;;;;17.63;12.48;;;21.50;53.80;;;;;;31749131;28;20132;-45
2021/10/20 13:59:48;;;;;;;14.77;9.20;;;21.70;54.30;;;;;;31748473;28;20048;-46
2021/10/20 14:15:10;;;;;;;15.32;9.75;;;22.10;55.70;;;;;;31746253;28;20059;-44
2021/10/20 14:30:32;;;;;;;16.98;14.55;;;22.40;55.00;;;;;;31856781;28;20104;-44
2021/10/20 14:45:55;;;;;;;22.15;17.65;;;22.60;54.70;;;;;;31871693;28;20107;-48
2021/10/20 15:01:18;;;;;;;36.50;29.17;;;22.80;54.90;;;;;;31896434;28;20067;-47
2021/10/20 15:16:22;;;;;;;27.17;23.10;;;22.70;54.70;;;;;;31898118;28;20040;-46
2021/10/20 15:31:25;;;;;;;23.88;19.98;;;22.50;54.80;;;;;;31901037;28;20036;-44
2021/10/20 15:46:27;;;;;;;17.65;15.02;;;22.40;54.40;;;;;;31785459;28;20051;-49
2021/10/20 16:01:29;;;;;;;15.02;13.25;;;22.70;54.50;;;;;;31845178;28;20064;-47
2021/10/20 16:16:32;;;;;;;6.22;5.15;;;22.70;53.10;;;;;;31881358;28;20059;-44
2021/10/20 16:31:34;;;;;;;2.72;2.53;;;22.80;53.10;;;;;;31883405;28;20050;-47
2021/10/20 16:46:36;;;;;;;3.38;1.50;;;22.60;53.50;;;;;;31879967;28;20075;-44
2021/10/20 17:01:38;;;;;;;2.58;1.10;;;23.20;53.20;;;;;;31879534;28;20063;-45
2021/10/20 17:16:40;;;;;;;1.77;1.63;;;23.40;53.60;;;;;;31844965;28;20051;-47
2021/10/20 17:31:42;;;;;;;3.35;2.45;;;23.20;55.30;;;;;;31752084;28;20044;-53
2021/10/20 17:46:44;;;;;;;14.32;3.10;;;23.10;55.60;;;;;;31750038;28;20048;-54
2021/10/20 18:01:46;;;;;;;5.47;2.95;;;23.00;56.40;;;;;;31746316;28;20059;-49
2021/10/20 18:16:49;;;;;;;6.65;3.83;;;23.00;56.90;;;;;;31400345;27;10000490;-56
2021/10/20 18:31:51;;;;;;;5.90;3.15;;;22.90;57.30;;;;;;31865991;28;20048;-56
2021/10/20 18:46:54;;;;;;;25.05;4.00;;;22.90;57.70;;;;;;31863702;28;20052;-45
2021/10/20 19:01:56;;;;;;;8.23;3.88;;;23.00;58.50;;;;;;31860674;28;20091;-46
2021/10/20 19:16:59;;;;;;;10.35;3.72;;;22.80;58.10;;;;;;31863797;28;21018;-52
2021/10/20 19:32:01;;;;;;;11.00;4.47;;;22.80;58.30;;;;;;31868650;28;20044;-44
2021/10/20 19:47:06;;;;;;;15.10;4.95;;;22.80;58.20;;;;;;31892941;28;20047;-49
2021/10/20 20:02:08;;;;;;;8.50;3.63;;;22.90;58.40;;;;;;31888929;28;20055;-57
2021/10/20 20:17:11;;;;;;;17.50;4.18;;;22.90;58.20;;;;;;31884731;28;20603;-60
2021/10/20 20:32:13;;;;;;;19.75;13.25;;;22.90;58.60;;;;;;31818807;27;20044;-53
2021/10/20 20:47:15;;;;;;;15.07;11.48;;;22.90;57.70;;;;;;31886157;28;20075;-48
2021/10/20 21:02:17;;;;;;;18.50;13.82;;;22.90;57.70;;;;;;31873735;28;20046;-47
2021/10/20 21:17:20;;;;;;;17.98;12.95;;;22.80;58.20;;;;;;31860292;28;20805;-57
2021/10/20 21:32:22;;;;;;;15.55;11.88;;;22.80;58.00;;;;;;31800181;27;20098;-48
2021/10/20 21:47:24;;;;;;;8.20;5.47;;;22.90;58.00;;;;;;31857442;28;20051;-57
2021/10/20 22:02:27;;;;;;;44.47;5.43;;;22.90;58.80;;;;;;31865370;28;20044;-49
2021/10/20 22:17:29;;;;;;;2.63;1.30;;;22.90;58.70;;;;;;31873925;28;20048;-44
2021/10/20 22:32:31;;;;;;;0.70;0.70;;;22.90;58.50;;;;;;31874128;28;20036;-47
2021/10/20 22:47:34;;;;;;;1.77;0.50;;;22.90;58.90;;;;;;31872159;28;20148;-47
2021/10/20 23:02:36;;;;;;;1.67;0.40;;;22.90;58.50;;;;;;31871334;28;20095;-57
2021/10/20 23:17:38;;;;;;;11.93;0.55;;;23.40;58.90;;;;;;31889075;28;20308;-57
2021/10/20 23:32:40;;;;;;;1.65;0.20;;;23.50;58.80;;;;;;31893283;28;20063;-47
2021/10/20 23:47:42;;;;;;;0.20;0.20;;;23.40;58.70;;;;;;31891178;28;20067;-50
